• Join FlightAware (Why Join?)
  • Login
  • US Flag 
09:51PM EST


 

Airport Tracker/Info


-or-


 

Live Flight TrackerFlight Track Log ✈ N920AC ✈ 26-Aug-2014 ✈ KSRQ - KAPF

Flight Track Log - Related Links

Times and Time Zones

All times are in EDT time to prevent confusion due to time zone crossing. See the N920AC flight status page for this flight to view local times or setup timezone preferences in your user account.

Time Position Orientation Groundspeed Altitude Reporting Facility
EDT Latitude Longitude Course Direction KTS MPH feet Rate Location/Type
01:31PM 27.3833 -82.5500 180° South 78 90 600  Level Tampa TRACON
01:32PM 27.3500 -82.5500 180° South 92 106 1,100 420 Climbing Tampa TRACON
01:33PM 27.3333 -82.5667 222° Southwest 94 108 1,500 420 Climbing Tampa TRACON
01:34PM 27.3167 -82.5667 180° South 96 110 1,900 360 Climbing Tampa TRACON
01:35PM 27.2833 -82.5667 180° South 91 105 2,300 420 Climbing Tampa TRACON
01:36PM 27.2624 -82.3957 138° Southeast  Level FlightAware Approximate
01:36PM 27.2667 -82.5500 138° Southeast 81 93 2,800  Level Tampa TRACON
01:37PM 27.2333 -82.5333 156° South 82 94 3,200 360 Climbing Tampa TRACON
01:38PM 27.2167 -82.5333 180° South 81 93 3,700 420 Climbing Tampa TRACON
01:39PM 27.2000 -82.5167 138° Southeast 83 96 4,100 360 Climbing Tampa TRACON
01:40PM 27.1833 -82.5000 138° Southeast 83 96 4,400 300 Climbing Tampa TRACON
01:41PM 27.1667 -82.5000 180° South 81 93 4,700 240 Climbing Tampa TRACON
01:42PM 27.1500 -82.4667 119° Southeast 84 97 5,000 120 Climbing Tampa TRACON
01:43PM 27.1183 -82.4569 165° South 84 97 5,000  Level Miami Center
01:44PM 27.0944 -82.4436 154° Southeast 89 102 5,000  Level Miami Center
01:45PM 27.0739 -82.4267 144° Southeast 89 102 5,000  Level Miami Center
01:46PM 27.0533 -82.4061 138° Southeast 91 105 5,000  Level Miami Center
01:47PM 27.0267 -82.3836 143° Southeast 96 110 5,000  Level Miami Center
01:48PM 27.0039 -82.3678 148° Southeast 96 110 5,000  Level Miami Center
01:49PM 26.9803 -82.3486 144° Southeast 97 112 5,100  Climbing Miami Center
01:50PM 26.9569 -82.3333 150° Southeast 98 113 5,000 -60 Descending Miami Center
01:51PM 26.9339 -82.3178 149° Southeast 98 113 5,000  Level Miami Center
01:52PM 26.9072 -82.3028 153° Southeast 98 113 5,000  Level Miami Center
01:53PM 26.8781 -82.2992 174° South 107 123 5,000  Level Miami Center
01:54PM 26.8469 -82.2950 173° South 106 122 5,000  Level Miami Center
01:56PM 26.8183 -82.2925 176° South 106 122 5,000  Level Miami Center
01:57PM 26.7864 -82.2889 174° South 106 122 5,000  Level Miami Center
01:58PM 26.7572 -82.2867 176° South 106 122 5,000  Level Miami Center
01:59PM 26.7258 -82.2839 175° South 104 120 5,000  Level Miami Center
02:00PM 26.6978 -82.2806 174° South 104 120 5,000  Level Miami Center
02:01PM 26.6667 -82.2764 173° South 104 120 5,000  Level Miami Center
02:02PM 26.6383 -82.2733 174° South 104 120 5,000  Level Miami Center
02:03PM 26.6119 -82.2625 160° South 96 110 5,000  Level Miami Center
02:04PM 26.5881 -82.2492 153° Southeast 95 109 5,000  Level Miami Center
02:05PM 26.5639 -82.2322 148° Southeast 96 110 5,000  Level Miami Center
02:06PM 26.5439 -82.2139 141° Southeast 93 107 5,000  Level Miami Center
02:07PM 26.5247 -82.1933 136° Southeast 96 110 5,000  Level Miami Center
02:08PM 26.5003 -82.1769 149° Southeast 96 110 5,000  Level Miami Center
02:09PM 26.4764 -82.1625 152° Southeast 96 110 5,000  Level Miami Center
02:10PM 26.4514 -82.1447 148° Southeast 97 112 5,000  Level Miami Center
02:11PM 26.4292 -82.1300 149° Southeast 97 112 5,000  Level Miami Center
02:12PM 26.4019 -82.1200 162° South 97 112 5,000  Level Miami Center
02:13PM 26.3758 -82.1086 159° South 99 114 5,000 -60 Level Miami Center
02:14PM 26.3544 -82.0889 140° Southeast 97 112 4,900 -120 Descending Miami Center
02:15PM 26.3269 -82.0833 170° South 98 113 4,800 -360 Descending Miami Center
02:16PM 26.2944 -82.0808 176° South 108 124 4,200 -540 Descending Miami Center
02:17PM 26.2647 -82.0772 174° South 109 125 3,700 -540 Descending Miami Center
02:18PM 26.2353 -82.0633 157° South 109 125 3,200 -540 Descending Miami Center
02:19PM 26.2069 -82.0539 163° South 108 124 2,600 -540 Descending Miami Center
02:20PM 26.1808 -82.0381 151° Southeast 108 124 2,100 -300 Descending Miami Center
02:21PM 26.1542 -82.0258 158° South 99 114 2,100  Level Miami Center
02:22PM 26.1286 -82.0153 160° South 98 113 2,200  Climbing Miami Center
02:23PM 26.0992 -82.0028 159° South 101 116 2,100 -60 Descending Miami Center
02:24PM 26.0700 -81.9975 171° South 106 122 2,100  Level Miami Center
02:25PM 26.0472 -81.9769 141° Southeast 100 115 2,100  Level Miami Center
02:26PM 26.0294 -81.9569 135° Southeast 96 110 2,100  Level Miami Center
02:27PM 26.0136 -81.9314 125° Southeast 95 109 2,100  Level Miami Center
02:28PM 26.0264 -81.9111 55° Northeast 90 104 2,100 -120 Level Miami Center
02:29PM 26.0464 -81.8922 40° Northeast 91 105 1,900 -180 Descending Miami Center
02:30PM 26.0664 -81.8728 41° Northeast 95 109 1,800 -60 Descending Miami Center
02:32PM 26.0828 -81.8525 48° Northeast 86 99 1,800 -240 Level Miami Center
02:33PM 26.0961 -81.8350 50° Northeast 79 91 1,400 -480 Descending Miami Center
02:34PM 26.1136 -81.8175 42° Northeast 79 91 900 -480 Descending Miami Center
02:35PM 26.1289 -81.8014 43° Northeast 79 91 500 -300 Descending Miami Center
02:36PM 26.1444 -81.7836 46° Northeast 77 89 300 -240 Descending Miami Center